sensor_id;sensor_type;location;lat;lon;timestamp;temperature;humidity
9941;DHT22;5009;50.656;7.188;2023-02-11T05:00:42;2.20;99.90
9941;DHT22;5009;50.656;7.188;2023-02-11T05:03:07;2.30;99.90
9941;DHT22;5009;50.656;7.188;2023-02-11T05:05:33;2.40;99.90
9941;DHT22;5009;50.656;7.188;2023-02-11T05:07:58;2.50;99.90
9941;DHT22;5009;50.656;7.188;2023-02-11T05:10:24;2.50;99.90
9941;DHT22;5009;50.656;7.188;2023-02-11T05:12:49;2.40;99.90
9941;DHT22;5009;50.656;7.188;2023-02-11T05:15:15;2.40;99.90
9941;DHT22;5009;50.656;7.188;2023-02-11T05:17:41;2.30;99.90
9941;DHT22;5009;50.656;7.188;2023-02-11T05:20:07;2.30;99.90
9941;DHT22;5009;50.656;7.188;2023-02-11T05:22:33;2.40;99.90
9941;DHT22;5009;50.656;7.188;2023-02-11T05:26:38;2.40;99.90
9941;DHT22;5009;50.656;7.188;2023-02-11T05:29:04;2.40;99.90
9941;DHT22;5009;50.656;7.188;2023-02-11T05:31:29;2.40;99.90
9941;DHT22;5009;50.656;7.188;2023-02-11T05:33:55;2.40;99.90
9941;DHT22;5009;50.656;7.188;2023-02-11T05:36:20;2.40;99.90
9941;DHT22;5009;50.656;7.188;2023-02-11T05:38:46;2.40;99.90
9941;DHT22;5009;50.656;7.188;2023-02-11T05:41:12;2.40;99.90
9941;DHT22;5009;50.656;7.188;2023-02-11T05:43:37;2.50;99.90
9941;DHT22;5009;50.656;7.188;2023-02-11T05:46:04;2.60;99.90
9941;DHT22;5009;50.656;7.188;2023-02-11T05:48:30;2.60;99.90
9941;DHT22;5009;50.656;7.188;2023-02-11T05:50:56;2.60;99.90
9941;DHT22;5009;50.656;7.188;2023-02-11T05:53:22;2.70;99.90
9941;DHT22;5009;50.656;7.188;2023-02-11T05:55:47;2.70;99.90
9941;DHT22;5009;50.656;7.188;2023-02-11T05:58:13;2.80;99.90
9941;DHT22;5009;50.656;7.188;2023-02-11T06:00:38;2.90;99.90
9941;DHT22;5009;50.656;7.188;2023-02-11T06:03:04;3.00;99.90
9941;DHT22;5009;50.656;7.188;2023-02-11T06:05:30;3.00;99.90
9941;DHT22;5009;50.656;7.188;2023-02-11T06:07:56;3.10;99.90
9941;DHT22;5009;50.656;7.188;2023-02-11T06:10:22;3.00;99.90
9941;DHT22;5009;50.656;7.188;2023-02-11T06:12:47;3.00;99.90
9941;DHT22;5009;50.656;7.188;2023-02-11T06:15:13;3.00;99.90
9941;DHT22;5009;50.656;7.188;2023-02-11T06:17:38;2.90;99.90
9941;DHT22;5009;50.656;7.188;2023-02-11T06:20:06;3.00;99.90
9941;DHT22;5009;50.656;7.188;2023-02-11T06:22:32;3.10;99.90
9941;DHT22;5009;50.656;7.188;2023-02-11T06:24:58;3.20;99.90
9941;DHT22;5009;50.656;7.188;2023-02-11T06:27:24;3.10;99.90
9941;DHT22;5009;50.656;7.188;2023-02-11T06:29:49;3.10;99.90
9941;DHT22;5009;50.656;7.188;2023-02-11T06:32:17;3.00;99.90
9941;DHT22;5009;50.656;7.188;2023-02-11T06:34:43;2.80;99.90
9941;DHT22;5009;50.656;7.188;2023-02-11T06:37:09;2.80;99.90
9941;DHT22;5009;50.656;7.188;2023-02-11T06:39:34;2.80;99.90
9941;DHT22;5009;50.656;7.188;2023-02-11T06:42:00;2.80;99.90
9941;DHT22;5009;50.656;7.188;2023-02-11T06:44:25;2.80;99.90
9941;DHT22;5009;50.656;7.188;2023-02-11T06:46:51;2.80;99.90
9941;DHT22;5009;50.656;7.188;2023-02-11T06:49:16;2.80;99.90
9941;DHT22;5009;50.656;7.188;2023-02-11T06:51:42;2.80;99.90
9941;DHT22;5009;50.656;7.188;2023-02-11T06:54:07;2.80;99.90
9941;DHT22;5009;50.656;7.188;2023-02-11T06:56:33;2.80;99.90
9941;DHT22;5009;50.656;7.188;2023-02-11T06:58:59;2.80;99.90
9941;DHT22;5009;50.656;7.188;2023-02-11T07:01:26;2.80;99.90
9941;DHT22;5009;50.656;7.188;2023-02-11T07:03:52;2.80;99.90
9941;DHT22;5009;50.656;7.188;2023-02-11T07:06:20;2.90;99.90
9941;DHT22;5009;50.656;7.188;2023-02-11T07:08:46;2.90;99.90
9941;DHT22;5009;50.656;7.188;2023-02-11T07:11:15;2.90;99.90
9941;DHT22;5009;50.656;7.188;2023-02-11T07:13:41;2.90;99.90
9941;DHT22;5009;50.656;7.188;2023-02-11T07:16:08;2.90;99.90
9941;DHT22;5009;50.656;7.188;2023-02-11T07:18:34;3.00;99.90
9941;DHT22;5009;50.656;7.188;2023-02-11T07:21:04;3.10;99.90
9941;DHT22;5009;50.656;7.188;2023-02-11T07:23:30;3.20;99.90
9941;DHT22;5009;50.656;7.188;2023-02-11T07:25:55;3.20;99.90
9941;DHT22;5009;50.656;7.188;2023-02-11T07:28:21;3.30;99.90
9941;DHT22;5009;50.656;7.188;2023-02-11T07:30:47;3.40;99.90
9941;DHT22;5009;50.656;7.188;2023-02-11T07:33:12;3.30;99.90
9941;DHT22;5009;50.656;7.188;2023-02-11T07:35:38;3.30;99.90
9941;DHT22;5009;50.656;7.188;2023-02-11T07:38:03;3.30;99.90
9941;DHT22;5009;50.656;7.188;2023-02-11T07:40:29;3.30;99.90
9941;DHT22;5009;50.656;7.188;2023-02-11T07:42:56;3.20;99.90
9941;DHT22;5009;50.656;7.188;2023-02-11T07:45:21;3.30;99.90
9941;DHT22;5009;50.656;7.188;2023-02-11T07:47:47;3.30;99.90
9941;DHT22;5009;50.656;7.188;2023-02-11T07:50:12;3.20;99.90
9941;DHT22;5009;50.656;7.188;2023-02-11T07:52:38;3.30;99.90
9941;DHT22;5009;50.656;7.188;2023-02-11T07:55:04;3.30;99.90
9941;DHT22;5009;50.656;7.188;2023-02-11T07:57:29;3.30;99.90
9941;DHT22;5009;50.656;7.188;2023-02-11T07:59:55;3.30;99.90
9941;DHT22;5009;50.656;7.188;2023-02-11T08:02:20;3.30;99.90
9941;DHT22;5009;50.656;7.188;2023-02-11T08:04:46;3.30;99.90
9941;DHT22;5009;50.656;7.188;2023-02-11T08:07:16;3.30;99.90
9941;DHT22;5009;50.656;7.188;2023-02-11T08:09:41;3.30;99.90
9941;DHT22;5009;50.656;7.188;2023-02-11T08:12:07;3.30;99.90
9941;DHT22;5009;50.656;7.188;2023-02-11T08:14:33;3.30;99.90
9941;DHT22;5009;50.656;7.188;2023-02-11T08:16:58;3.40;99.90
9941;DHT22;5009;50.656;7.188;2023-02-11T08:19:24;3.30;99.90
9941;DHT22;5009;50.656;7.188;2023-02-11T08:21:50;3.40;99.90
9941;DHT22;5009;50.656;7.188;2023-02-11T08:24:19;3.40;99.90
9941;DHT22;5009;50.656;7.188;2023-02-11T08:26:44;3.40;99.90
9941;DHT22;5009;50.656;7.188;2023-02-11T08:29:12;3.40;99.90
9941;DHT22;5009;50.656;7.188;2023-02-11T08:31:40;3.50;99.90
9941;DHT22;5009;50.656;7.188;2023-02-11T08:34:06;3.40;99.90
9941;DHT22;5009;50.656;7.188;2023-02-11T08:36:34;3.50;99.90
9941;DHT22;5009;50.656;7.188;2023-02-11T08:39:03;3.50;99.90
9941;DHT22;5009;50.656;7.188;2023-02-11T08:41:30;3.60;99.90
9941;DHT22;5009;50.656;7.188;2023-02-11T08:43:56;3.60;99.90
9941;DHT22;5009;50.656;7.188;2023-02-11T08:46:22;3.60;99.90
9941;DHT22;5009;50.656;7.188;2023-02-11T08:48:49;3.60;99.90
9941;DHT22;5009;50.656;7.188;2023-02-11T08:51:21;3.70;99.90
9941;DHT22;5009;50.656;7.188;2023-02-11T08:53:47;3.60;99.90
9941;DHT22;5009;50.656;7.188;2023-02-11T08:56:14;3.70;99.90
9941;DHT22;5009;50.656;7.188;2023-02-11T08:58:40;3.70;99.90
9941;DHT22;5009;50.656;7.188;2023-02-11T09:03:35;3.80;99.90
9941;DHT22;5009;50.656;7.188;2023-02-11T09:06:04;3.90;99.90
9941;DHT22;5009;50.656;7.188;2023-02-11T09:08:30;3.90;99.90
9941;DHT22;5009;50.656;7.188;2023-02-11T09:10:56;3.90;99.90
9941;DHT22;5009;50.656;7.188;2023-02-11T09:13:21;3.90;99.90
9941;DHT22;5009;50.656;7.188;2023-02-11T09:15:47;3.90;99.90
9941;DHT22;5009;50.656;7.188;2023-02-11T09:18:13;3.90;99.90
9941;DHT22;5009;50.656;7.188;2023-02-11T09:20:38;4.00;99.90
9941;DHT22;5009;50.656;7.188;2023-02-11T09:23:04;4.00;99.90
9941;DHT22;5009;50.656;7.188;2023-02-11T09:25:29;3.90;99.90
9941;DHT22;5009;50.656;7.188;2023-02-11T09:27:55;4.00;99.90
9941;DHT22;5009;50.656;7.188;2023-02-11T09:30:20;3.90;99.90
9941;DHT22;5009;50.656;7.188;2023-02-11T09:32:46;3.90;99.90
9941;DHT22;5009;50.656;7.188;2023-02-11T09:35:12;4.00;99.90
9941;DHT22;5009;50.656;7.188;2023-02-11T09:37:37;4.00;99.90
9941;DHT22;5009;50.656;7.188;2023-02-11T09:40:03;4.10;99.90
9941;DHT22;5009;50.656;7.188;2023-02-11T09:45:20;4.00;99.90
9941;DHT22;5009;50.656;7.188;2023-02-11T09:47:54;4.10;99.90
9941;DHT22;5009;50.656;7.188;2023-02-11T09:50:38;4.10;99.90
9941;DHT22;5009;50.656;7.188;2023-02-11T09:53:17;4.20;99.90
9941;DHT22;5009;50.656;7.188;2023-02-11T09:55:47;4.30;99.90
9941;DHT22;5009;50.656;7.188;2023-02-11T09:58:30;4.40;99.90
9941;DHT22;5009;50.656;7.188;2023-02-11T10:09:20;4.60;99.90
9941;DHT22;5009;50.656;7.188;2023-02-11T10:12:46;4.60;99.90
9941;DHT22;5009;50.656;7.188;2023-02-11T10:22:49;4.90;99.90
9941;DHT22;5009;50.656;7.188;2023-02-11T10:25:34;4.90;99.90
9941;DHT22;5009;50.656;7.188;2023-02-11T10:28:18;4.90;99.90
9941;DHT22;5009;50.656;7.188;2023-02-11T10:31:06;4.90;99.90
9941;DHT22;5009;50.656;7.188;2023-02-11T10:33:50;4.90;99.90
9941;DHT22;5009;50.656;7.188;2023-02-11T10:36:17;4.90;99.90
9941;DHT22;5009;50.656;7.188;2023-02-11T10:38:43;5.00;99.90
9941;DHT22;5009;50.656;7.188;2023-02-11T10:41:27;5.10;99.90
9941;DHT22;5009;50.656;7.188;2023-02-11T10:43:55;5.10;99.90
9941;DHT22;5009;50.656;7.188;2023-02-11T10:46:30;5.20;99.90
9941;DHT22;5009;50.656;7.188;2023-02-11T10:48:56;5.10;99.90
9941;DHT22;5009;50.656;7.188;2023-02-11T10:51:24;5.10;99.90
9941;DHT22;5009;50.656;7.188;2023-02-11T10:54:10;5.20;99.90
9941;DHT22;5009;50.656;7.188;2023-02-11T10:56:47;5.20;99.90
9941;DHT22;5009;50.656;7.188;2023-02-11T11:01:55;5.20;99.90
9941;DHT22;5009;50.656;7.188;2023-02-11T11:04:41;5.30;99.90
9941;DHT22;5009;50.656;7.188;2023-02-11T11:07:20;5.20;99.90
9941;DHT22;5009;50.656;7.188;2023-02-11T11:12:46;5.40;99.90
9941;DHT22;5009;50.656;7.188;2023-02-11T11:15:22;5.40;99.90
9941;DHT22;5009;50.656;7.188;2023-02-11T11:17:49;5.50;99.90
9941;DHT22;5009;50.656;7.188;2023-02-11T11:22:41;5.60;99.90
9941;DHT22;5009;50.656;7.188;2023-02-11T11:25:25;5.60;99.90
9941;DHT22;5009;50.656;7.188;2023-02-11T11:27:55;5.60;99.90
9941;DHT22;5009;50.656;7.188;2023-02-11T11:30:26;5.60;99.90
9941;DHT22;5009;50.656;7.188;2023-02-11T11:32:52;5.60;99.90
9941;DHT22;5009;50.656;7.188;2023-02-11T11:35:29;5.60;99.90
9941;DHT22;5009;50.656;7.188;2023-02-11T11:38:00;5.60;99.90
9941;DHT22;5009;50.656;7.188;2023-02-11T11:40:32;5.70;99.90
9941;DHT22;5009;50.656;7.188;2023-02-11T11:45:37;5.80;99.90
9941;DHT22;5009;50.656;7.188;2023-02-11T11:48:35;5.90;99.90
9941;DHT22;5009;50.656;7.188;2023-02-11T11:51:01;5.90;99.90
9941;DHT22;5009;50.656;7.188;2023-02-11T11:56:05;6.00;99.90
9941;DHT22;5009;50.656;7.188;2023-02-11T11:58:33;6.00;99.90
9941;DHT22;5009;50.656;7.188;2023-02-11T12:04:39;6.10;99.90
9941;DHT22;5009;50.656;7.188;2023-02-11T12:07:20;6.20;99.90
9941;DHT22;5009;50.656;7.188;2023-02-11T12:10:20;6.10;99.90
9941;DHT22;5009;50.656;7.188;2023-02-11T12:23:52;6.20;99.90
9941;DHT22;5009;50.656;7.188;2023-02-11T12:26:32;6.50;99.90
9941;DHT22;5009;50.656;7.188;2023-02-11T12:35:43;6.60;99.90
9941;DHT22;5009;50.656;7.188;2023-02-11T12:43:41;6.80;99.90
9941;DHT22;5009;50.656;7.188;2023-02-11T12:46:35;6.80;99.90
9941;DHT22;5009;50.656;7.188;2023-02-11T12:49:26;6.90;99.90
9941;DHT22;5009;50.656;7.188;2023-02-11T12:52:09;6.90;99.90
9941;DHT22;5009;50.656;7.188;2023-02-11T12:54:58;6.90;99.90
9941;DHT22;5009;50.656;7.188;2023-02-11T12:57:27;7.00;99.90
9941;DHT22;5009;50.656;7.188;2023-02-11T13:00:23;7.00;99.90
9941;DHT22;5009;50.656;7.188;2023-02-11T13:06:01;7.20;99.90
9941;DHT22;5009;50.656;7.188;2023-02-11T13:08:50;7.20;99.90
9941;DHT22;5009;50.656;7.188;2023-02-11T13:11:25;7.30;99.90
9941;DHT22;5009;50.656;7.188;2023-02-11T13:13:59;7.30;99.90
9941;DHT22;5009;50.656;7.188;2023-02-11T13:16:43;7.30;99.90
9941;DHT22;5009;50.656;7.188;2023-02-11T13:24:30;7.30;99.90
9941;DHT22;5009;50.656;7.188;2023-02-11T13:35:32;7.50;99.90
9941;DHT22;5009;50.656;7.188;2023-02-11T13:38:00;7.50;99.90
9941;DHT22;5009;50.656;7.188;2023-02-11T13:40:34;7.50;99.90
9941;DHT22;5009;50.656;7.188;2023-02-11T13:43:03;7.60;99.90
9941;DHT22;5009;50.656;7.188;2023-02-11T13:45:35;7.60;99.90
9941;DHT22;5009;50.656;7.188;2023-02-11T13:51:10;7.60;99.90
9941;DHT22;5009;50.656;7.188;2023-02-11T13:53:48;7.70;99.90
9941;DHT22;5009;50.656;7.188;2023-02-11T13:59:03;7.70;99.90
9941;DHT22;5009;50.656;7.188;2023-02-11T14:04:33;7.80;99.90
9941;DHT22;5009;50.656;7.188;2023-02-11T14:07:27;7.80;99.90
9941;DHT22;5009;50.656;7.188;2023-02-11T14:13:29;7.80;99.90
9941;DHT22;5009;50.656;7.188;2023-02-11T14:16:08;7.80;99.90
9941;DHT22;5009;50.656;7.188;2023-02-11T14:21:10;7.80;99.90
9941;DHT22;5009;50.656;7.188;2023-02-11T14:23:38;7.80;99.90
9941;DHT22;5009;50.656;7.188;2023-02-11T14:28:38;7.90;99.90
9941;DHT22;5009;50.656;7.188;2023-02-11T14:31:09;7.90;99.90
9941;DHT22;5009;50.656;7.188;2023-02-11T14:34:07;7.90;99.90
9941;DHT22;5009;50.656;7.188;2023-02-11T14:41:46;7.90;99.90
9941;DHT22;5009;50.656;7.188;2023-02-11T14:44:19;7.90;99.90
9941;DHT22;5009;50.656;7.188;2023-02-11T14:46:48;7.90;99.90
9941;DHT22;5009;50.656;7.188;2023-02-11T14:49:25;7.90;99.90
9941;DHT22;5009;50.656;7.188;2023-02-11T14:51:55;7.90;99.90
9941;DHT22;5009;50.656;7.188;2023-02-11T14:54:24;7.90;99.90
9941;DHT22;5009;50.656;7.188;2023-02-11T14:59:33;7.90;99.90
9941;DHT22;5009;50.656;7.188;2023-02-11T15:01:59;7.90;99.90
9941;DHT22;5009;50.656;7.188;2023-02-11T15:04:32;7.80;99.90
9941;DHT22;5009;50.656;7.188;2023-02-11T15:07:05;7.90;99.90
9941;DHT22;5009;50.656;7.188;2023-02-11T15:09:37;7.80;99.90
9941;DHT22;5009;50.656;7.188;2023-02-11T15:12:08;7.80;99.90
9941;DHT22;5009;50.656;7.188;2023-02-11T15:14:45;7.80;99.90
9941;DHT22;5009;50.656;7.188;2023-02-11T15:17:15;7.70;99.90
9941;DHT22;5009;50.656;7.188;2023-02-11T15:19:44;7.60;99.90
9941;DHT22;5009;50.656;7.188;2023-02-11T15:22:23;7.60;99.90
9941;DHT22;5009;50.656;7.188;2023-02-11T15:25:06;7.60;99.90
9941;DHT22;5009;50.656;7.188;2023-02-11T15:27:45;7.50;99.90
9941;DHT22;5009;50.656;7.188;2023-02-11T15:32:46;7.50;99.90
9941;DHT22;5009;50.656;7.188;2023-02-11T15:35:12;7.50;99.90
9941;DHT22;5009;50.656;7.188;2023-02-11T15:37:40;7.50;99.90
9941;DHT22;5009;50.656;7.188;2023-02-11T15:40:21;7.40;99.90
9941;DHT22;5009;50.656;7.188;2023-02-11T15:43:03;7.50;99.90
9941;DHT22;5009;50.656;7.188;2023-02-11T15:45:42;7.40;99.90
9941;DHT22;5009;50.656;7.188;2023-02-11T15:48:15;7.40;99.90
9941;DHT22;5009;50.656;7.188;2023-02-11T15:50:52;7.40;99.90
9941;DHT22;5009;50.656;7.188;2023-02-11T15:53:22;7.30;99.90
9941;DHT22;5009;50.656;7.188;2023-02-11T15:55:51;7.30;99.90
9941;DHT22;5009;50.656;7.188;2023-02-11T15:58:17;7.30;99.90
9941;DHT22;5009;50.656;7.188;2023-02-11T16:00:48;7.40;99.90
9941;DHT22;5009;50.656;7.188;2023-02-11T16:03:22;7.40;99.90
9941;DHT22;5009;50.656;7.188;2023-02-11T16:05:48;7.40;99.90
9941;DHT22;5009;50.656;7.188;2023-02-11T16:08:25;7.40;99.90
9941;DHT22;5009;50.656;7.188;2023-02-11T16:10:57;7.50;99.90
9941;DHT22;5009;50.656;7.188;2023-02-11T16:13:25;7.40;99.90
9941;DHT22;5009;50.656;7.188;2023-02-11T16:15:57;7.50;99.90
9941;DHT22;5009;50.656;7.188;2023-02-11T16:18:43;7.60;99.90
9941;DHT22;5009;50.656;7.188;2023-02-11T16:21:14;7.60;99.90
9941;DHT22;5009;50.656;7.188;2023-02-11T16:23:42;7.60;99.90
9941;DHT22;5009;50.656;7.188;2023-02-11T16:26:28;7.50;99.90
9941;DHT22;5009;50.656;7.188;2023-02-11T16:29:09;7.40;99.90
9941;DHT22;5009;50.656;7.188;2023-02-11T16:31:37;7.40;99.90
9941;DHT22;5009;50.656;7.188;2023-02-11T16:34:11;7.30;99.90
9941;DHT22;5009;50.656;7.188;2023-02-11T16:36:37;7.40;99.90
9941;DHT22;5009;50.656;7.188;2023-02-11T16:39:03;7.40;99.90
9941;DHT22;5009;50.656;7.188;2023-02-11T16:41:28;7.40;99.90
9941;DHT22;5009;50.656;7.188;2023-02-11T16:43:56;7.30;99.90
9941;DHT22;5009;50.656;7.188;2023-02-11T16:46:22;7.30;99.90
9941;DHT22;5009;50.656;7.188;2023-02-11T16:48:48;7.30;99.90
9941;DHT22;5009;50.656;7.188;2023-02-11T16:51:14;7.30;99.90
9941;DHT22;5009;50.656;7.188;2023-02-11T16:53:39;7.20;99.90
9941;DHT22;5009;50.656;7.188;2023-02-11T16:56:05;7.20;99.90
9941;DHT22;5009;50.656;7.188;2023-02-11T16:58:31;7.10;99.90
9941;DHT22;5009;50.656;7.188;2023-02-11T17:00:56;7.10;99.90
9941;DHT22;5009;50.656;7.188;2023-02-11T17:03:23;7.10;99.90
9941;DHT22;5009;50.656;7.188;2023-02-11T17:05:50;7.10;99.90
9941;DHT22;5009;50.656;7.188;2023-02-11T17:08:16;7.10;99.90
9941;DHT22;5009;50.656;7.188;2023-02-11T17:10:41;7.20;99.90
9941;DHT22;5009;50.656;7.188;2023-02-11T17:13:07;7.20;99.90
9941;DHT22;5009;50.656;7.188;2023-02-11T17:15:33;7.20;99.90
9941;DHT22;5009;50.656;7.188;2023-02-11T17:17:58;7.30;99.90
9941;DHT22;5009;50.656;7.188;2023-02-11T17:20:24;7.30;99.90
9941;DHT22;5009;50.656;7.188;2023-02-11T17:22:50;7.40;99.90
9941;DHT22;5009;50.656;7.188;2023-02-11T17:25:16;7.40;99.90
9941;DHT22;5009;50.656;7.188;2023-02-11T17:27:42;7.40;99.90
9941;DHT22;5009;50.656;7.188;2023-02-11T17:30:09;7.50;99.90
9941;DHT22;5009;50.656;7.188;2023-02-11T17:32:35;7.50;99.90
9941;DHT22;5009;50.656;7.188;2023-02-11T17:35:01;7.40;99.90
9941;DHT22;5009;50.656;7.188;2023-02-11T17:37:27;7.40;99.90
9941;DHT22;5009;50.656;7.188;2023-02-11T17:39:53;7.40;99.90
9941;DHT22;5009;50.656;7.188;2023-02-11T17:42:19;7.40;99.90
9941;DHT22;5009;50.656;7.188;2023-02-11T17:44:45;7.50;99.90
9941;DHT22;5009;50.656;7.188;2023-02-11T17:47:11;7.40;99.90
9941;DHT22;5009;50.656;7.188;2023-02-11T17:49:38;7.50;99.90
9941;DHT22;5009;50.656;7.188;2023-02-11T17:52:03;7.50;99.90
9941;DHT22;5009;50.656;7.188;2023-02-11T17:54:29;7.50;99.90
9941;DHT22;5009;50.656;7.188;2023-02-11T17:56:54;7.50;99.90
9941;DHT22;5009;50.656;7.188;2023-02-11T17:59:20;7.50;99.90
9941;DHT22;5009;50.656;7.188;2023-02-11T18:01:46;7.50;99.90
9941;DHT22;5009;50.656;7.188;2023-02-11T18:04:16;7.40;99.90
9941;DHT22;5009;50.656;7.188;2023-02-11T18:06:42;7.30;99.90
9941;DHT22;5009;50.656;7.188;2023-02-11T18:09:07;7.20;99.90
9941;DHT22;5009;50.656;7.188;2023-02-11T18:11:35;7.20;99.90
9941;DHT22;5009;50.656;7.188;2023-02-11T18:14:02;7.20;99.90
9941;DHT22;5009;50.656;7.188;2023-02-11T18:16:29;7.10;99.90
9941;DHT22;5009;50.656;7.188;2023-02-11T18:18:56;7.20;99.90
9941;DHT22;5009;50.656;7.188;2023-02-11T18:21:22;7.20;99.90
9941;DHT22;5009;50.656;7.188;2023-02-11T18:23:48;7.20;99.90
9941;DHT22;5009;50.656;7.188;2023-02-11T18:26:16;7.20;99.90
9941;DHT22;5009;50.656;7.188;2023-02-11T18:28:42;7.30;99.90
9941;DHT22;5009;50.656;7.188;2023-02-11T18:31:08;7.20;99.90
9941;DHT22;5009;50.656;7.188;2023-02-11T18:33:36;7.20;99.90
9941;DHT22;5009;50.656;7.188;2023-02-11T18:36:08;7.20;99.90
9941;DHT22;5009;50.656;7.188;2023-02-11T18:38:34;7.20;99.90
9941;DHT22;5009;50.656;7.188;2023-02-11T18:41:00;7.20;99.90
9941;DHT22;5009;50.656;7.188;2023-02-11T18:43:26;7.20;99.90
9941;DHT22;5009;50.656;7.188;2023-02-11T18:45:56;7.20;99.90
9941;DHT22;5009;50.656;7.188;2023-02-11T18:48:22;7.20;99.90
9941;DHT22;5009;50.656;7.188;2023-02-11T18:50:47;7.20;99.90
9941;DHT22;5009;50.656;7.188;2023-02-11T18:53:13;7.10;99.90
9941;DHT22;5009;50.656;7.188;2023-02-11T18:55:43;7.10;99.90
9941;DHT22;5009;50.656;7.188;2023-02-11T18:58:09;7.10;99.90
9941;DHT22;5009;50.656;7.188;2023-02-11T19:00:36;7.00;99.90
9941;DHT22;5009;50.656;7.188;2023-02-11T19:03:02;7.00;99.90
9941;DHT22;5009;50.656;7.188;2023-02-11T19:05:28;7.00;99.90
9941;DHT22;5009;50.656;7.188;2023-02-11T19:07:58;7.00;99.90
9941;DHT22;5009;50.656;7.188;2023-02-11T19:10:25;7.00;99.90
9941;DHT22;5009;50.656;7.188;2023-02-11T19:12:54;7.00;99.90
9941;DHT22;5009;50.656;7.188;2023-02-11T19:15:21;6.90;99.90
9941;DHT22;5009;50.656;7.188;2023-02-11T19:17:47;6.90;99.90
9941;DHT22;5009;50.656;7.188;2023-02-11T19:20:13;6.90;99.90
9941;DHT22;5009;50.656;7.188;2023-02-11T19:22:38;6.90;99.90
9941;DHT22;5009;50.656;7.188;2023-02-11T19:25:04;6.90;99.90
9941;DHT22;5009;50.656;7.188;2023-02-11T19:27:30;6.90;99.90
9941;DHT22;5009;50.656;7.188;2023-02-11T19:29:55;6.80;99.90
9941;DHT22;5009;50.656;7.188;2023-02-11T19:32:21;6.80;99.90
9941;DHT22;5009;50.656;7.188;2023-02-11T19:34:46;6.80;99.90
9941;DHT22;5009;50.656;7.188;2023-02-11T19:37:12;6.90;99.90
9941;DHT22;5009;50.656;7.188;2023-02-11T19:39:38;6.90;99.90
9941;DHT22;5009;50.656;7.188;2023-02-11T19:42:05;6.90;99.90
9941;DHT22;5009;50.656;7.188;2023-02-11T19:44:30;6.90;99.90
9941;DHT22;5009;50.656;7.188;2023-02-11T19:46:56;6.90;99.90
9941;DHT22;5009;50.656;7.188;2023-02-11T19:49:21;7.00;99.90
9941;DHT22;5009;50.656;7.188;2023-02-11T19:51:53;7.00;99.90
9941;DHT22;5009;50.656;7.188;2023-02-11T19:54:20;7.00;99.90
9941;DHT22;5009;50.656;7.188;2023-02-11T19:56:46;7.00;99.90
9941;DHT22;5009;50.656;7.188;2023-02-11T19:59:14;7.00;99.90
9941;DHT22;5009;50.656;7.188;2023-02-11T20:01:40;7.00;99.90
9941;DHT22;5009;50.656;7.188;2023-02-11T20:04:06;7.00;99.90
9941;DHT22;5009;50.656;7.188;2023-02-11T20:06:33;7.00;99.90
9941;DHT22;5009;50.656;7.188;2023-02-11T20:09:05;7.00;99.90
9941;DHT22;5009;50.656;7.188;2023-02-11T20:11:31;7.00;99.90
9941;DHT22;5009;50.656;7.188;2023-02-11T20:13:58;7.00;99.90
9941;DHT22;5009;50.656;7.188;2023-02-11T20:16:25;7.00;99.90
9941;DHT22;5009;50.656;7.188;2023-02-11T20:18:51;7.10;99.90
9941;DHT22;5009;50.656;7.188;2023-02-11T20:21:23;7.20;99.90
9941;DHT22;5009;50.656;7.188;2023-02-11T20:23:49;7.20;99.90
9941;DHT22;5009;50.656;7.188;2023-02-11T20:26:21;7.20;99.90
9941;DHT22;5009;50.656;7.188;2023-02-11T20:28:48;7.10;99.90
9941;DHT22;5009;50.656;7.188;2023-02-11T20:31:14;7.00;99.90
9941;DHT22;5009;50.656;7.188;2023-02-11T20:33:41;7.10;99.90
9941;DHT22;5009;50.656;7.188;2023-02-11T20:36:29;7.10;99.90
9941;DHT22;5009;50.656;7.188;2023-02-11T20:38:57;7.10;99.90
9941;DHT22;5009;50.656;7.188;2023-02-11T20:41:27;7.10;99.90
9941;DHT22;5009;50.656;7.188;2023-02-11T20:43:54;7.10;99.90
9941;DHT22;5009;50.656;7.188;2023-02-11T20:46:24;7.20;99.90
9941;DHT22;5009;50.656;7.188;2023-02-11T20:48:50;7.10;99.90
9941;DHT22;5009;50.656;7.188;2023-02-11T20:51:22;7.00;99.90
9941;DHT22;5009;50.656;7.188;2023-02-11T20:53:49;6.90;99.90
9941;DHT22;5009;50.656;7.188;2023-02-11T20:56:18;7.00;99.90
9941;DHT22;5009;50.656;7.188;2023-02-11T20:58:44;7.00;99.90
9941;DHT22;5009;50.656;7.188;2023-02-11T21:01:33;7.10;99.90
9941;DHT22;5009;50.656;7.188;2023-02-11T21:03:59;7.10;99.90
9941;DHT22;5009;50.656;7.188;2023-02-11T21:06:33;7.10;99.90
9941;DHT22;5009;50.656;7.188;2023-02-11T21:09:00;7.10;99.90
9941;DHT22;5009;50.656;7.188;2023-02-11T21:11:25;7.10;99.90
9941;DHT22;5009;50.656;7.188;2023-02-11T21:13:51;7.10;99.90
9941;DHT22;5009;50.656;7.188;2023-02-11T21:16:18;7.00;99.90
9941;DHT22;5009;50.656;7.188;2023-02-11T21:18:47;7.00;99.90
9941;DHT22;5009;50.656;7.188;2023-02-11T21:21:13;7.00;99.90
9941;DHT22;5009;50.656;7.188;2023-02-11T21:23:39;7.00;99.90
9941;DHT22;5009;50.656;7.188;2023-02-11T21:26:06;6.90;99.90
9941;DHT22;5009;50.656;7.188;2023-02-11T21:28:31;7.00;99.90
9941;DHT22;5009;50.656;7.188;2023-02-11T21:30:57;7.00;99.90
9941;DHT22;5009;50.656;7.188;2023-02-11T21:33:24;7.00;99.90
9941;DHT22;5009;50.656;7.188;2023-02-11T21:35:55;7.00;99.90
9941;DHT22;5009;50.656;7.188;2023-02-11T21:38:21;7.00;99.90
9941;DHT22;5009;50.656;7.188;2023-02-11T21:40:46;7.00;99.90
9941;DHT22;5009;50.656;7.188;2023-02-11T21:43:12;7.00;99.90
9941;DHT22;5009;50.656;7.188;2023-02-11T21:45:42;7.00;99.90
9941;DHT22;5009;50.656;7.188;2023-02-11T21:48:08;6.90;99.90
9941;DHT22;5009;50.656;7.188;2023-02-11T21:50:40;6.90;99.90
9941;DHT22;5009;50.656;7.188;2023-02-11T21:53:06;6.90;99.90
9941;DHT22;5009;50.656;7.188;2023-02-11T21:55:32;6.70;99.90
9941;DHT22;5009;50.656;7.188;2023-02-11T21:57:58;6.70;99.90
